sensor_id;sensor_type;location;lat;lon;timestamp;P1;durP1;ratioP1;P2;durP2;ratioP2
10645;SDS011;5371;49.782;9.932;2022-11-24T00:02:05;5.87;;;2.80;;
10645;SDS011;5371;49.782;9.932;2022-11-24T00:04:32;8.57;;;3.00;;
10645;SDS011;5371;49.782;9.932;2022-11-24T00:06:59;9.03;;;2.73;;
10645;SDS011;5371;49.782;9.932;2022-11-24T00:09:26;9.27;;;3.20;;
10645;SDS011;5371;49.782;9.932;2022-11-24T00:11:53;8.47;;;3.00;;
10645;SDS011;5371;49.782;9.932;2022-11-24T00:14:20;13.10;;;3.30;;
10645;SDS011;5371;49.782;9.932;2022-11-24T00:16:46;7.97;;;2.70;;
10645;SDS011;5371;49.782;9.932;2022-11-24T00:19:15;9.40;;;2.77;;
10645;SDS011;5371;49.782;9.932;2022-11-24T00:21:42;11.63;;;2.63;;
10645;SDS011;5371;49.782;9.932;2022-11-24T00:24:09;8.00;;;2.53;;
10645;SDS011;5371;49.782;9.932;2022-11-24T00:26:37;6.07;;;2.40;;
10645;SDS011;5371;49.782;9.932;2022-11-24T00:29:04;7.23;;;2.80;;
10645;SDS011;5371;49.782;9.932;2022-11-24T00:31:33;7.67;;;2.70;;
10645;SDS011;5371;49.782;9.932;2022-11-24T00:34:03;9.37;;;2.73;;
10645;SDS011;5371;49.782;9.932;2022-11-24T00:36:34;7.40;;;2.57;;
10645;SDS011;5371;49.782;9.932;2022-11-24T00:39:03;7.37;;;2.73;;
10645;SDS011;5371;49.782;9.932;2022-11-24T00:41:31;9.87;;;2.60;;
10645;SDS011;5371;49.782;9.932;2022-11-24T00:43:59;8.97;;;2.57;;
10645;SDS011;5371;49.782;9.932;2022-11-24T00:46:26;11.40;;;3.30;;
10645;SDS011;5371;49.782;9.932;2022-11-24T00:48:53;13.00;;;3.13;;
10645;SDS011;5371;49.782;9.932;2022-11-24T00:51:21;8.77;;;3.13;;
10645;SDS011;5371;49.782;9.932;2022-11-24T00:53:53;10.13;;;2.80;;
10645;SDS011;5371;49.782;9.932;2022-11-24T00:56:21;16.87;;;3.00;;
10645;SDS011;5371;49.782;9.932;2022-11-24T00:58:48;18.67;;;3.50;;
10645;SDS011;5371;49.782;9.932;2022-11-24T01:01:15;8.73;;;2.77;;
10645;SDS011;5371;49.782;9.932;2022-11-24T01:03:44;7.77;;;2.63;;
10645;SDS011;5371;49.782;9.932;2022-11-24T01:06:13;10.40;;;2.63;;
10645;SDS011;5371;49.782;9.932;2022-11-24T01:08:41;10.13;;;2.90;;
10645;SDS011;5371;49.782;9.932;2022-11-24T01:11:11;9.43;;;2.80;;
10645;SDS011;5371;49.782;9.932;2022-11-24T01:13:40;8.33;;;3.00;;
10645;SDS011;5371;49.782;9.932;2022-11-24T01:16:15;8.70;;;3.30;;
10645;SDS011;5371;49.782;9.932;2022-11-24T01:21:47;10.13;;;3.60;;
10645;SDS011;5371;49.782;9.932;2022-11-24T01:24:15;7.63;;;3.60;;
10645;SDS011;5371;49.782;9.932;2022-11-24T01:26:43;9.30;;;3.00;;
10645;SDS011;5371;49.782;9.932;2022-11-24T01:29:11;10.83;;;3.60;;
10645;SDS011;5371;49.782;9.932;2022-11-24T01:31:38;11.10;;;3.30;;
10645;SDS011;5371;49.782;9.932;2022-11-24T01:34:05;10.93;;;3.57;;
10645;SDS011;5371;49.782;9.932;2022-11-24T01:36:32;14.37;;;3.50;;
10645;SDS011;5371;49.782;9.932;2022-11-24T01:38:59;12.00;;;3.60;;
10645;SDS011;5371;49.782;9.932;2022-11-24T01:41:27;11.07;;;3.40;;
10645;SDS011;5371;49.782;9.932;2022-11-24T01:43:55;12.03;;;3.83;;
10645;SDS011;5371;49.782;9.932;2022-11-24T01:46:24;13.57;;;3.57;;
10645;SDS011;5371;49.782;9.932;2022-11-24T01:48:55;8.50;;;3.33;;
10645;SDS011;5371;49.782;9.932;2022-11-24T01:51:27;14.20;;;4.03;;
10645;SDS011;5371;49.782;9.932;2022-11-24T01:53:58;9.30;;;3.53;;
10645;SDS011;5371;49.782;9.932;2022-11-24T01:56:29;12.60;;;3.80;;
10645;SDS011;5371;49.782;9.932;2022-11-24T01:58:59;10.47;;;3.20;;
10645;SDS011;5371;49.782;9.932;2022-11-24T02:01:28;9.60;;;3.33;;
10645;SDS011;5371;49.782;9.932;2022-11-24T02:03:56;12.00;;;3.70;;
10645;SDS011;5371;49.782;9.932;2022-11-24T02:06:25;9.87;;;3.40;;
10645;SDS011;5371;49.782;9.932;2022-11-24T02:08:56;12.10;;;3.37;;
10645;SDS011;5371;49.782;9.932;2022-11-24T02:11:25;15.37;;;3.63;;
10645;SDS011;5371;49.782;9.932;2022-11-24T02:13:56;8.83;;;2.90;;
10645;SDS011;5371;49.782;9.932;2022-11-24T02:16:25;14.13;;;3.40;;
10645;SDS011;5371;49.782;9.932;2022-11-24T02:18:52;14.97;;;3.30;;
10645;SDS011;5371;49.782;9.932;2022-11-24T02:21:19;10.67;;;3.20;;
10645;SDS011;5371;49.782;9.932;2022-11-24T02:23:48;15.10;;;3.80;;
10645;SDS011;5371;49.782;9.932;2022-11-24T02:26:27;14.27;;;3.40;;
10645;SDS011;5371;49.782;9.932;2022-11-24T02:28:59;12.70;;;3.33;;
10645;SDS011;5371;49.782;9.932;2022-11-24T02:31:27;9.83;;;3.30;;
10645;SDS011;5371;49.782;9.932;2022-11-24T02:33:54;13.87;;;3.27;;
10645;SDS011;5371;49.782;9.932;2022-11-24T02:36:21;14.83;;;3.80;;
10645;SDS011;5371;49.782;9.932;2022-11-24T02:38:48;10.63;;;3.03;;
10645;SDS011;5371;49.782;9.932;2022-11-24T02:41:16;9.43;;;3.10;;
10645;SDS011;5371;49.782;9.932;2022-11-24T02:43:47;15.97;;;2.90;;
10645;SDS011;5371;49.782;9.932;2022-11-24T02:46:16;13.10;;;2.87;;
10645;SDS011;5371;49.782;9.932;2022-11-24T02:48:43;8.50;;;2.97;;
10645;SDS011;5371;49.782;9.932;2022-11-24T02:51:10;9.43;;;3.20;;
10645;SDS011;5371;49.782;9.932;2022-11-24T02:53:37;10.50;;;3.00;;
10645;SDS011;5371;49.782;9.932;2022-11-24T02:56:04;13.63;;;3.27;;
10645;SDS011;5371;49.782;9.932;2022-11-24T02:58:31;14.03;;;3.20;;
10645;SDS011;5371;49.782;9.932;2022-11-24T03:01:00;9.13;;;2.87;;
10645;SDS011;5371;49.782;9.932;2022-11-24T03:03:27;10.70;;;3.40;;
10645;SDS011;5371;49.782;9.932;2022-11-24T03:05:54;13.67;;;3.17;;
10645;SDS011;5371;49.782;9.932;2022-11-24T03:08:21;11.37;;;2.77;;
10645;SDS011;5371;49.782;9.932;2022-11-24T03:10:48;12.87;;;3.40;;
10645;SDS011;5371;49.782;9.932;2022-11-24T03:13:15;13.87;;;3.53;;
10645;SDS011;5371;49.782;9.932;2022-11-24T03:15:42;14.63;;;4.10;;
10645;SDS011;5371;49.782;9.932;2022-11-24T03:18:10;12.63;;;3.43;;
10645;SDS011;5371;49.782;9.932;2022-11-24T03:20:37;20.90;;;3.83;;
10645;SDS011;5371;49.782;9.932;2022-11-24T03:23:04;17.13;;;3.57;;
10645;SDS011;5371;49.782;9.932;2022-11-24T03:25:31;13.37;;;3.70;;
10645;SDS011;5371;49.782;9.932;2022-11-24T03:27:57;11.83;;;3.20;;
10645;SDS011;5371;49.782;9.932;2022-11-24T03:30:25;9.90;;;2.90;;
10645;SDS011;5371;49.782;9.932;2022-11-24T03:32:52;16.63;;;3.13;;
10645;SDS011;5371;49.782;9.932;2022-11-24T03:35:20;11.30;;;3.30;;
10645;SDS011;5371;49.782;9.932;2022-11-24T03:37:48;9.50;;;3.27;;
10645;SDS011;5371;49.782;9.932;2022-11-24T03:40:15;12.10;;;3.13;;
10645;SDS011;5371;49.782;9.932;2022-11-24T03:42:43;11.23;;;3.43;;
10645;SDS011;5371;49.782;9.932;2022-11-24T03:45:10;10.67;;;3.40;;
10645;SDS011;5371;49.782;9.932;2022-11-24T03:47:37;11.80;;;3.30;;
10645;SDS011;5371;49.782;9.932;2022-11-24T03:50:04;10.63;;;3.43;;
10645;SDS011;5371;49.782;9.932;2022-11-24T03:52:33;14.33;;;3.40;;
10645;SDS011;5371;49.782;9.932;2022-11-24T03:55:00;12.17;;;3.47;;
10645;SDS011;5371;49.782;9.932;2022-11-24T03:57:27;10.77;;;3.20;;
10645;SDS011;5371;49.782;9.932;2022-11-24T03:59:54;12.93;;;3.30;;
10645;SDS011;5371;49.782;9.932;2022-11-24T04:02:21;13.53;;;4.10;;
10645;SDS011;5371;49.782;9.932;2022-11-24T04:04:48;11.17;;;3.57;;
10645;SDS011;5371;49.782;9.932;2022-11-24T04:07:16;15.40;;;3.73;;
10645;SDS011;5371;49.782;9.932;2022-11-24T04:09:45;13.13;;;3.60;;
10645;SDS011;5371;49.782;9.932;2022-11-24T04:12:12;14.07;;;3.57;;
10645;SDS011;5371;49.782;9.932;2022-11-24T04:14:56;10.50;;;3.70;;
10645;SDS011;5371;49.782;9.932;2022-11-24T04:17:23;8.23;;;3.10;;
10645;SDS011;5371;49.782;9.932;2022-11-24T04:19:49;12.93;;;3.97;;
10645;SDS011;5371;49.782;9.932;2022-11-24T04:22:16;15.37;;;3.73;;
10645;SDS011;5371;49.782;9.932;2022-11-24T04:24:45;10.90;;;3.50;;
10645;SDS011;5371;49.782;9.932;2022-11-24T04:27:12;12.17;;;3.60;;
10645;SDS011;5371;49.782;9.932;2022-11-24T04:29:39;14.17;;;3.53;;
10645;SDS011;5371;49.782;9.932;2022-11-24T04:32:06;12.80;;;4.17;;
10645;SDS011;5371;49.782;9.932;2022-11-24T04:34:33;11.37;;;3.43;;
10645;SDS011;5371;49.782;9.932;2022-11-24T04:37:00;12.57;;;3.70;;
10645;SDS011;5371;49.782;9.932;2022-11-24T04:39:27;19.70;;;3.80;;
10645;SDS011;5371;49.782;9.932;2022-11-24T04:41:55;16.67;;;3.90;;
10645;SDS011;5371;49.782;9.932;2022-11-24T04:44:22;14.73;;;4.33;;
10645;SDS011;5371;49.782;9.932;2022-11-24T04:46:49;17.30;;;4.00;;
10645;SDS011;5371;49.782;9.932;2022-11-24T04:49:16;14.23;;;4.00;;
10645;SDS011;5371;49.782;9.932;2022-11-24T04:51:43;19.63;;;4.10;;
10645;SDS011;5371;49.782;9.932;2022-11-24T04:54:11;13.40;;;3.83;;
10645;SDS011;5371;49.782;9.932;2022-11-24T04:56:39;12.27;;;3.63;;
10645;SDS011;5371;49.782;9.932;2022-11-24T04:59:11;15.77;;;4.27;;
10645;SDS011;5371;49.782;9.932;2022-11-24T05:01:40;18.10;;;3.73;;
10645;SDS011;5371;49.782;9.932;2022-11-24T05:04:07;14.00;;;3.23;;
10645;SDS011;5371;49.782;9.932;2022-11-24T05:06:35;12.13;;;3.27;;
10645;SDS011;5371;49.782;9.932;2022-11-24T05:09:02;12.40;;;3.30;;
10645;SDS011;5371;49.782;9.932;2022-11-24T05:11:29;12.40;;;3.50;;
10645;SDS011;5371;49.782;9.932;2022-11-24T05:13:55;11.70;;;3.67;;
10645;SDS011;5371;49.782;9.932;2022-11-24T05:16:23;11.17;;;3.50;;
10645;SDS011;5371;49.782;9.932;2022-11-24T05:18:50;11.00;;;3.80;;
10645;SDS011;5371;49.782;9.932;2022-11-24T05:21:17;14.17;;;3.40;;
10645;SDS011;5371;49.782;9.932;2022-11-24T05:23:44;15.93;;;3.90;;
10645;SDS011;5371;49.782;9.932;2022-11-24T05:26:11;13.40;;;3.93;;
10645;SDS011;5371;49.782;9.932;2022-11-24T05:28:39;13.83;;;3.73;;
10645;SDS011;5371;49.782;9.932;2022-11-24T05:31:06;14.07;;;3.80;;
10645;SDS011;5371;49.782;9.932;2022-11-24T05:33:34;12.13;;;3.63;;
10645;SDS011;5371;49.782;9.932;2022-11-24T05:36:02;15.17;;;3.80;;
10645;SDS011;5371;49.782;9.932;2022-11-24T05:38:30;11.50;;;3.50;;
10645;SDS011;5371;49.782;9.932;2022-11-24T05:40:59;14.90;;;4.20;;
10645;SDS011;5371;49.782;9.932;2022-11-24T05:43:26;12.03;;;3.73;;
10645;SDS011;5371;49.782;9.932;2022-11-24T05:45:54;16.70;;;3.30;;
10645;SDS011;5371;49.782;9.932;2022-11-24T05:48:24;16.83;;;4.07;;
10645;SDS011;5371;49.782;9.932;2022-11-24T05:50:55;16.50;;;3.47;;
10645;SDS011;5371;49.782;9.932;2022-11-24T05:53:23;12.53;;;3.33;;
10645;SDS011;5371;49.782;9.932;2022-11-24T05:55:51;15.67;;;3.30;;
10645;SDS011;5371;49.782;9.932;2022-11-24T05:58:18;18.03;;;3.73;;
10645;SDS011;5371;49.782;9.932;2022-11-24T06:00:45;17.13;;;3.20;;
10645;SDS011;5371;49.782;9.932;2022-11-24T06:03:12;21.03;;;3.20;;
10645;SDS011;5371;49.782;9.932;2022-11-24T06:05:44;13.40;;;3.50;;
10645;SDS011;5371;49.782;9.932;2022-11-24T06:08:14;16.83;;;3.23;;
10645;SDS011;5371;49.782;9.932;2022-11-24T06:10:41;14.33;;;3.37;;
10645;SDS011;5371;49.782;9.932;2022-11-24T06:13:08;15.20;;;3.50;;
10645;SDS011;5371;49.782;9.932;2022-11-24T06:15:35;15.27;;;3.83;;
10645;SDS011;5371;49.782;9.932;2022-11-24T06:18:03;15.47;;;3.17;;
10645;SDS011;5371;49.782;9.932;2022-11-24T06:20:30;13.30;;;4.00;;
10645;SDS011;5371;49.782;9.932;2022-11-24T06:22:57;15.30;;;4.10;;
10645;SDS011;5371;49.782;9.932;2022-11-24T06:25:26;14.53;;;3.30;;
10645;SDS011;5371;49.782;9.932;2022-11-24T06:27:53;13.47;;;3.60;;
10645;SDS011;5371;49.782;9.932;2022-11-24T06:30:20;12.93;;;3.53;;
10645;SDS011;5371;49.782;9.932;2022-11-24T06:32:47;13.47;;;3.30;;
10645;SDS011;5371;49.782;9.932;2022-11-24T06:35:14;18.63;;;3.53;;
10645;SDS011;5371;49.782;9.932;2022-11-24T06:37:41;17.43;;;3.17;;
10645;SDS011;5371;49.782;9.932;2022-11-24T06:40:10;13.57;;;4.07;;
10645;SDS011;5371;49.782;9.932;2022-11-24T06:42:38;17.03;;;3.90;;
10645;SDS011;5371;49.782;9.932;2022-11-24T06:45:06;14.67;;;4.10;;
10645;SDS011;5371;49.782;9.932;2022-11-24T06:47:33;13.20;;;3.87;;
10645;SDS011;5371;49.782;9.932;2022-11-24T06:50:00;14.40;;;3.47;;
10645;SDS011;5371;49.782;9.932;2022-11-24T06:52:28;13.57;;;4.47;;
10645;SDS011;5371;49.782;9.932;2022-11-24T06:54:55;15.03;;;4.20;;
10645;SDS011;5371;49.782;9.932;2022-11-24T06:57:22;12.60;;;4.20;;
10645;SDS011;5371;49.782;9.932;2022-11-24T06:59:51;16.10;;;5.57;;
10645;SDS011;5371;49.782;9.932;2022-11-24T07:02:18;19.13;;;4.77;;
10645;SDS011;5371;49.782;9.932;2022-11-24T07:04:45;19.17;;;4.93;;
10645;SDS011;5371;49.782;9.932;2022-11-24T07:07:12;15.33;;;3.93;;
10645;SDS011;5371;49.782;9.932;2022-11-24T07:09:39;15.77;;;3.90;;
10645;SDS011;5371;49.782;9.932;2022-11-24T07:12:06;16.33;;;4.07;;
10645;SDS011;5371;49.782;9.932;2022-11-24T07:14:33;18.77;;;4.20;;
10645;SDS011;5371;49.782;9.932;2022-11-24T07:17:02;13.80;;;4.07;;
10645;SDS011;5371;49.782;9.932;2022-11-24T07:19:29;15.43;;;4.20;;
10645;SDS011;5371;49.782;9.932;2022-11-24T07:21:56;14.67;;;4.13;;
10645;SDS011;5371;49.782;9.932;2022-11-24T07:24:23;14.43;;;4.43;;
10645;SDS011;5371;49.782;9.932;2022-11-24T07:26:50;17.63;;;4.63;;
10645;SDS011;5371;49.782;9.932;2022-11-24T07:29:17;15.33;;;4.20;;
10645;SDS011;5371;49.782;9.932;2022-11-24T07:31:44;12.47;;;4.00;;
10645;SDS011;5371;49.782;9.932;2022-11-24T07:34:12;15.20;;;5.20;;
10645;SDS011;5371;49.782;9.932;2022-11-24T07:36:40;20.80;;;4.57;;
10645;SDS011;5371;49.782;9.932;2022-11-24T07:39:07;17.90;;;4.53;;
10645;SDS011;5371;49.782;9.932;2022-11-24T07:41:34;18.70;;;5.53;;
10645;SDS011;5371;49.782;9.932;2022-11-24T07:44:01;19.57;;;5.83;;
10645;SDS011;5371;49.782;9.932;2022-11-24T07:46:28;15.37;;;5.50;;
10645;SDS011;5371;49.782;9.932;2022-11-24T07:48:55;24.40;;;6.57;;
10645;SDS011;5371;49.782;9.932;2022-11-24T07:51:23;18.63;;;5.80;;
10645;SDS011;5371;49.782;9.932;2022-11-24T07:53:50;21.50;;;6.80;;
10645;SDS011;5371;49.782;9.932;2022-11-24T07:56:17;16.13;;;4.57;;
10645;SDS011;5371;49.782;9.932;2022-11-24T07:58:44;18.83;;;5.30;;
10645;SDS011;5371;49.782;9.932;2022-11-24T08:01:12;17.60;;;4.47;;
10645;SDS011;5371;49.782;9.932;2022-11-24T08:03:40;20.40;;;5.63;;
10645;SDS011;5371;49.782;9.932;2022-11-24T08:06:09;16.30;;;5.83;;
10645;SDS011;5371;49.782;9.932;2022-11-24T08:08:39;17.53;;;5.53;;
10645;SDS011;5371;49.782;9.932;2022-11-24T08:11:06;21.87;;;6.97;;
10645;SDS011;5371;49.782;9.932;2022-11-24T08:13:35;20.50;;;6.70;;
10645;SDS011;5371;49.782;9.932;2022-11-24T08:16:03;22.33;;;7.50;;
10645;SDS011;5371;49.782;9.932;2022-11-24T08:18:31;23.17;;;7.00;;
10645;SDS011;5371;49.782;9.932;2022-11-24T08:20:58;22.47;;;5.47;;
10645;SDS011;5371;49.782;9.932;2022-11-24T08:23:25;22.67;;;5.80;;
10645;SDS011;5371;49.782;9.932;2022-11-24T08:25:54;12.90;;;4.70;;
10645;SDS011;5371;49.782;9.932;2022-11-24T08:28:21;17.63;;;6.97;;
10645;SDS011;5371;49.782;9.932;2022-11-24T08:30:48;22.90;;;8.27;;
10645;SDS011;5371;49.782;9.932;2022-11-24T08:33:17;24.07;;;9.43;;
10645;SDS011;5371;49.782;9.932;2022-11-24T08:35:44;22.33;;;7.20;;
10645;SDS011;5371;49.782;9.932;2022-11-24T08:38:11;21.43;;;6.63;;
10645;SDS011;5371;49.782;9.932;2022-11-24T08:40:38;18.80;;;6.27;;
10645;SDS011;5371;49.782;9.932;2022-11-24T08:43:06;16.07;;;5.50;;
10645;SDS011;5371;49.782;9.932;2022-11-24T08:45:33;18.37;;;5.40;;
10645;SDS011;5371;49.782;9.932;2022-11-24T08:48:00;16.83;;;4.50;;
10645;SDS011;5371;49.782;9.932;2022-11-24T08:50:27;17.33;;;4.73;;
10645;SDS011;5371;49.782;9.932;2022-11-24T08:52:54;14.87;;;4.13;;
10645;SDS011;5371;49.782;9.932;2022-11-24T08:55:21;19.23;;;5.40;;
10645;SDS011;5371;49.782;9.932;2022-11-24T08:57:48;16.77;;;5.17;;
10645;SDS011;5371;49.782;9.932;2022-11-24T09:00:16;19.30;;;5.27;;
10645;SDS011;5371;49.782;9.932;2022-11-24T09:02:54;19.33;;;6.13;;
10645;SDS011;5371;49.782;9.932;2022-11-24T09:05:21;16.07;;;5.53;;
10645;SDS011;5371;49.782;9.932;2022-11-24T09:07:48;14.20;;;5.27;;
10645;SDS011;5371;49.782;9.932;2022-11-24T09:10:15;15.73;;;4.20;;
10645;SDS011;5371;49.782;9.932;2022-11-24T09:12:43;17.43;;;4.90;;
10645;SDS011;5371;49.782;9.932;2022-11-24T09:15:10;10.30;;;3.60;;
10645;SDS011;5371;49.782;9.932;2022-11-24T09:17:39;14.50;;;3.97;;
10645;SDS011;5371;49.782;9.932;2022-11-24T09:20:06;11.47;;;3.30;;
10645;SDS011;5371;49.782;9.932;2022-11-24T09:22:33;16.53;;;3.73;;
10645;SDS011;5371;49.782;9.932;2022-11-24T09:25:02;9.30;;;2.57;;
10645;SDS011;5371;49.782;9.932;2022-11-24T09:27:31;8.17;;;2.67;;
10645;SDS011;5371;49.782;9.932;2022-11-24T09:29:58;9.40;;;2.53;;
10645;SDS011;5371;49.782;9.932;2022-11-24T09:32:25;8.70;;;2.40;;
10645;SDS011;5371;49.782;9.932;2022-11-24T09:34:55;7.07;;;2.50;;
10645;SDS011;5371;49.782;9.932;2022-11-24T09:37:22;8.53;;;2.57;;
10645;SDS011;5371;49.782;9.932;2022-11-24T09:39:49;8.77;;;2.47;;
10645;SDS011;5371;49.782;9.932;2022-11-24T09:42:16;7.73;;;3.30;;
10645;SDS011;5371;49.782;9.932;2022-11-24T09:47:53;9.47;;;2.40;;
10645;SDS011;5371;49.782;9.932;2022-11-24T09:50:26;9.27;;;3.57;;
10645;SDS011;5371;49.782;9.932;2022-11-24T09:52:57;9.63;;;3.78;;
10645;SDS011;5371;49.782;9.932;2022-11-24T09:55:33;10.27;;;2.67;;
10645;SDS011;5371;49.782;9.932;2022-11-24T09:58:10;6.53;;;2.40;;
10645;SDS011;5371;49.782;9.932;2022-11-24T10:00:42;6.55;;;2.30;;
10645;SDS011;5371;49.782;9.932;2022-11-24T10:03:13;7.10;;;2.40;;
10645;SDS011;5371;49.782;9.932;2022-11-24T10:05:45;6.20;;;2.10;;
10645;SDS011;5371;49.782;9.932;2022-11-24T10:08:19;9.90;;;2.60;;
10645;SDS011;5371;49.782;9.932;2022-11-24T10:10:55;8.18;;;2.30;;
10645;SDS011;5371;49.782;9.932;2022-11-24T10:13:31;5.80;;;1.90;;
10645;SDS011;5371;49.782;9.932;2022-11-24T10:16:12;7.32;;;1.95;;
10645;SDS011;5371;49.782;9.932;2022-11-24T10:18:51;7.35;;;2.17;;
10645;SDS011;5371;49.782;9.932;2022-11-24T10:21:31;8.18;;;2.20;;
10645;SDS011;5371;49.782;9.932;2022-11-24T10:24:11;8.90;;;2.28;;
10645;SDS011;5371;49.782;9.932;2022-11-24T10:26:50;4.60;;;1.70;;
10645;SDS011;5371;49.782;9.932;2022-11-24T10:29:23;8.10;;;1.83;;
10645;SDS011;5371;49.782;9.932;2022-11-24T10:31:54;6.47;;;2.25;;
10645;SDS011;5371;49.782;9.932;2022-11-24T10:34:24;7.88;;;2.20;;
10645;SDS011;5371;49.782;9.932;2022-11-24T10:36:58;5.88;;;2.08;;
10645;SDS011;5371;49.782;9.932;2022-11-24T10:39:31;7.88;;;1.90;;
10645;SDS011;5371;49.782;9.932;2022-11-24T10:42:04;6.93;;;1.88;;
10645;SDS011;5371;49.782;9.932;2022-11-24T10:44:38;4.18;;;1.80;;
10645;SDS011;5371;49.782;9.932;2022-11-24T10:47:10;5.65;;;1.88;;
10645;SDS011;5371;49.782;9.932;2022-11-24T10:49:45;3.83;;;1.73;;
10645;SDS011;5371;49.782;9.932;2022-11-24T10:52:31;7.95;;;1.75;;
10645;SDS011;5371;49.782;9.932;2022-11-24T10:55:05;4.63;;;1.60;;
10645;SDS011;5371;49.782;9.932;2022-11-24T10:57:33;6.10;;;1.77;;
10645;SDS011;5371;49.782;9.932;2022-11-24T11:00:03;3.78;;;1.70;;
10645;SDS011;5371;49.782;9.932;2022-11-24T11:02:49;6.53;;;1.80;;
10645;SDS011;5371;49.782;9.932;2022-11-24T11:05:25;5.10;;;1.70;;
10645;SDS011;5371;49.782;9.932;2022-11-24T11:08:14;4.60;;;1.77;;
10645;SDS011;5371;49.782;9.932;2022-11-24T11:10:44;5.45;;;1.92;;
10645;SDS011;5371;49.782;9.932;2022-11-24T11:13:22;7.75;;;1.85;;
10645;SDS011;5371;49.782;9.932;2022-11-24T11:15:51;8.00;;;1.80;;
10645;SDS011;5371;49.782;9.932;2022-11-24T11:18:18;7.45;;;1.73;;
10645;SDS011;5371;49.782;9.932;2022-11-24T11:20:49;7.38;;;1.88;;
10645;SDS011;5371;49.782;9.932;2022-11-24T11:23:24;5.30;;;1.80;;
10645;SDS011;5371;49.782;9.932;2022-11-24T11:28:58;7.85;;;2.15;;
10645;SDS011;5371;49.782;9.932;2022-11-24T11:31:27;5.15;;;1.85;;
10645;SDS011;5371;49.782;9.932;2022-11-24T11:34:01;8.05;;;2.13;;
10645;SDS011;5371;49.782;9.932;2022-11-24T11:36:40;9.05;;;2.00;;
10645;SDS011;5371;49.782;9.932;2022-11-24T11:41:48;5.95;;;1.98;;
10645;SDS011;5371;49.782;9.932;2022-11-24T11:44:21;7.60;;;2.05;;
10645;SDS011;5371;49.782;9.932;2022-11-24T11:46:55;5.53;;;1.90;;
10645;SDS011;5371;49.782;9.932;2022-11-24T11:49:24;9.13;;;2.38;;
10645;SDS011;5371;49.782;9.932;2022-11-24T11:51:56;8.80;;;2.05;;
10645;SDS011;5371;49.782;9.932;2022-11-24T11:54:36;6.70;;;2.03;;
10645;SDS011;5371;49.782;9.932;2022-11-24T11:57:23;10.20;;;2.20;;
10645;SDS011;5371;49.782;9.932;2022-11-24T12:00:02;7.55;;;2.13;;
10645;SDS011;5371;49.782;9.932;2022-11-24T12:02:46;8.73;;;2.13;;
10645;SDS011;5371;49.782;9.932;2022-11-24T12:05:27;5.00;;;1.90;;
10645;SDS011;5371;49.782;9.932;2022-11-24T12:08:01;8.23;;;1.90;;
10645;SDS011;5371;49.782;9.932;2022-11-24T12:10:45;6.00;;;1.60;;
10645;SDS011;5371;49.782;9.932;2022-11-24T12:16:15;6.80;;;2.00;;
10645;SDS011;5371;49.782;9.932;2022-11-24T12:18:59;6.90;;;2.17;;
10645;SDS011;5371;49.782;9.932;2022-11-24T12:21:34;7.97;;;1.85;;
10645;SDS011;5371;49.782;9.932;2022-11-24T12:24:10;3.95;;;1.95;;
10645;SDS011;5371;49.782;9.932;2022-11-24T12:26:47;8.07;;;1.90;;
10645;SDS011;5371;49.782;9.932;2022-11-24T12:32:31;8.02;;;2.20;;
10645;SDS011;5371;49.782;9.932;2022-11-24T12:35:19;7.95;;;2.28;;
10645;SDS011;5371;49.782;9.932;2022-11-24T12:37:55;6.25;;;1.80;;
10645;SDS011;5371;49.782;9.932;2022-11-24T12:40:34;5.05;;;1.70;;
10645;SDS011;5371;49.782;9.932;2022-11-24T12:43:12;6.43;;;1.75;;
10645;SDS011;5371;49.782;9.932;2022-11-24T12:45:48;7.03;;;2.10;;
10645;SDS011;5371;49.782;9.932;2022-11-24T12:48:24;9.18;;;2.00;;
10645;SDS011;5371;49.782;9.932;2022-11-24T12:51:03;5.78;;;1.90;;
10645;SDS011;5371;49.782;9.932;2022-11-24T12:53:34;5.47;;;1.85;;
10645;SDS011;5371;49.782;9.932;2022-11-24T12:56:03;4.68;;;1.80;;
10645;SDS011;5371;49.782;9.932;2022-11-24T12:58:36;6.25;;;1.88;;
10645;SDS011;5371;49.782;9.932;2022-11-24T13:01:11;8.20;;;1.83;;
10645;SDS011;5371;49.782;9.932;2022-11-24T13:03:54;8.82;;;2.03;;
10645;SDS011;5371;49.782;9.932;2022-11-24T13:06:32;6.35;;;1.80;;
10645;SDS011;5371;49.782;9.932;2022-11-24T13:09:06;7.10;;;2.05;;
10645;SDS011;5371;49.782;9.932;2022-11-24T13:11:38;7.10;;;2.13;;
10645;SDS011;5371;49.782;9.932;2022-11-24T13:14:12;6.57;;;1.98;;
10645;SDS011;5371;49.782;9.932;2022-11-24T13:16:50;6.17;;;1.80;;
10645;SDS011;5371;49.782;9.932;2022-11-24T13:19:19;9.40;;;2.60;;
10645;SDS011;5371;49.782;9.932;2022-11-24T13:21:48;7.50;;;2.10;;
10645;SDS011;5371;49.782;9.932;2022-11-24T13:24:27;5.60;;;2.13;;
10645;SDS011;5371;49.782;9.932;2022-11-24T13:29:53;7.80;;;2.25;;
10645;SDS011;5371;49.782;9.932;2022-11-24T13:35:27;6.85;;;2.17;;
10645;SDS011;5371;49.782;9.932;2022-11-24T13:37:55;7.55;;;1.90;;
10645;SDS011;5371;49.782;9.932;2022-11-24T13:40:35;4.82;;;1.92;;
10645;SDS011;5371;49.782;9.932;2022-11-24T13:43:20;8.52;;;2.10;;
10645;SDS011;5371;49.782;9.932;2022-11-24T13:45:50;5.10;;;1.88;;
10645;SDS011;5371;49.782;9.932;2022-11-24T13:51:22;7.63;;;1.90;;
10645;SDS011;5371;49.782;9.932;2022-11-24T13:53:49;5.75;;;1.52;;
10645;SDS011;5371;49.782;9.932;2022-11-24T13:56:24;5.93;;;1.88;;
10645;SDS011;5371;49.782;9.932;2022-11-24T13:58:55;7.40;;;1.90;;
10645;SDS011;5371;49.782;9.932;2022-11-24T14:01:26;5.93;;;2.10;;
10645;SDS011;5371;49.782;9.932;2022-11-24T14:04:04;6.95;;;2.08;;
10645;SDS011;5371;49.782;9.932;2022-11-24T14:06:42;6.15;;;1.90;;
10645;SDS011;5371;49.782;9.932;2022-11-24T14:09:17;6.10;;;1.83;;
10645;SDS011;5371;49.782;9.932;2022-11-24T14:11:56;9.30;;;2.30;;
10645;SDS011;5371;49.782;9.932;2022-11-24T14:14:27;5.57;;;1.83;;
10645;SDS011;5371;49.782;9.932;2022-11-24T14:17:09;7.33;;;2.20;;
10645;SDS011;5371;49.782;9.932;2022-11-24T14:19:41;8.10;;;1.90;;
10645;SDS011;5371;49.782;9.932;2022-11-24T14:22:11;7.13;;;1.80;;
10645;SDS011;5371;49.782;9.932;2022-11-24T14:24:42;6.40;;;2.28;;
10645;SDS011;5371;49.782;9.932;2022-11-24T14:27:12;9.50;;;2.13;;
10645;SDS011;5371;49.782;9.932;2022-11-24T14:29:50;9.75;;;2.30;;
10645;SDS011;5371;49.782;9.932;2022-11-24T14:32:20;4.95;;;2.03;;
10645;SDS011;5371;49.782;9.932;2022-11-24T14:34:48;7.23;;;2.20;;
10645;SDS011;5371;49.782;9.932;2022-11-24T14:37:16;8.13;;;2.23;;
10645;SDS011;5371;49.782;9.932;2022-11-24T14:39:44;5.35;;;2.03;;
10645;SDS011;5371;49.782;9.932;2022-11-24T14:42:18;7.30;;;1.92;;
10645;SDS011;5371;49.782;9.932;2022-11-24T14:44:50;9.77;;;2.30;;
10645;SDS011;5371;49.782;9.932;2022-11-24T14:47:23;9.45;;;2.15;;
10645;SDS011;5371;49.782;9.932;2022-11-24T14:49:53;6.18;;;2.20;;
10645;SDS011;5371;49.782;9.932;2022-11-24T14:52:22;8.48;;;2.60;;
10645;SDS011;5371;49.782;9.932;2022-11-24T14:54:52;7.40;;;2.37;;
10645;SDS011;5371;49.782;9.932;2022-11-24T14:57:23;7.80;;;2.20;;
10645;SDS011;5371;49.782;9.932;2022-11-24T15:00:14;7.17;;;2.20;;
10645;SDS011;5371;49.782;9.932;2022-11-24T15:02:46;8.93;;;2.30;;
10645;SDS011;5371;49.782;9.932;2022-11-24T15:05:16;8.03;;;2.37;;
10645;SDS011;5371;49.782;9.932;2022-11-24T15:07:45;8.55;;;3.00;;
10645;SDS011;5371;49.782;9.932;2022-11-24T15:10:17;6.55;;;2.17;;
10645;SDS011;5371;49.782;9.932;2022-11-24T15:12:48;8.90;;;2.77;;
10645;SDS011;5371;49.782;9.932;2022-11-24T15:15:19;8.07;;;2.60;;
10645;SDS011;5371;49.782;9.932;2022-11-24T15:17:51;9.70;;;3.20;;
10645;SDS011;5371;49.782;9.932;2022-11-24T15:20:23;7.60;;;2.80;;
10645;SDS011;5371;49.782;9.932;2022-11-24T15:25:43;9.10;;;2.50;;
10645;SDS011;5371;49.782;9.932;2022-11-24T15:28:11;11.80;;;3.27;;
10645;SDS011;5371;49.782;9.932;2022-11-24T15:30:38;10.00;;;3.07;;
10645;SDS011;5371;49.782;9.932;2022-11-24T15:33:11;7.82;;;2.90;;
10645;SDS011;5371;49.782;9.932;2022-11-24T15:35:40;12.37;;;3.40;;
10645;SDS011;5371;49.782;9.932;2022-11-24T15:38:07;8.43;;;2.97;;
10645;SDS011;5371;49.782;9.932;2022-11-24T15:40:35;10.63;;;3.57;;